createdAt,value
2023-04-20T00:00:34.000Z,0
2023-04-20T00:03:18.000Z,0
2023-04-20T00:06:03.000Z,0
2023-04-20T00:08:47.000Z,0
2023-04-20T00:11:32.000Z,0
2023-04-20T00:14:17.000Z,0
2023-04-20T00:15:35.000Z,0
2023-04-20T00:17:01.000Z,0
2023-04-20T00:19:46.000Z,0
2023-04-20T00:22:31.000Z,0
2023-04-20T00:25:15.000Z,0
2023-04-20T00:28:00.000Z,0
2023-04-20T00:30:45.000Z,0
2023-04-20T00:33:29.000Z,0
2023-04-20T00:36:14.000Z,0
2023-04-20T00:38:59.000Z,0
2023-04-20T00:41:43.000Z,0
2023-04-20T00:43:01.000Z,0
2023-04-20T00:44:28.000Z,0
2023-04-20T00:47:12.000Z,0
2023-04-20T00:49:57.000Z,0
2023-04-20T00:52:42.000Z,0
2023-04-20T00:55:26.000Z,0
2023-04-20T00:58:11.000Z,0
2023-04-20T01:00:56.000Z,0
2023-04-20T01:03:40.000Z,0
2023-04-20T01:06:25.000Z,0
2023-04-20T01:09:10.000Z,0
2023-04-20T01:10:27.000Z,0
2023-04-20T01:11:54.000Z,0
2023-04-20T01:14:39.000Z,0
2023-04-20T01:17:23.000Z,0
2023-04-20T01:20:08.000Z,0
2023-04-20T01:25:37.000Z,0
2023-04-20T01:28:22.000Z,0
2023-04-20T01:31:07.000Z,0
2023-04-20T01:33:51.000Z,0
2023-04-20T01:36:36.000Z,0
2023-04-20T01:37:54.000Z,0
2023-04-20T01:39:21.000Z,0
2023-04-20T01:42:05.000Z,0
2023-04-20T01:44:50.000Z,0
2023-04-20T01:47:35.000Z,0
2023-04-20T01:50:19.000Z,0
2023-04-20T01:53:04.000Z,0
2023-04-20T01:55:48.000Z,0
2023-04-20T01:58:33.000Z,0
2023-04-20T02:01:18.000Z,0
2023-04-20T02:04:02.000Z,0
2023-04-20T02:05:20.000Z,0
2023-04-20T02:06:47.000Z,0
2023-04-20T02:09:32.000Z,0
2023-04-20T02:12:16.000Z,0
2023-04-20T02:15:01.000Z,0
2023-04-20T02:17:46.000Z,0
2023-04-20T02:20:30.000Z,0
2023-04-20T02:23:15.000Z,0
2023-04-20T02:25:59.000Z,0
2023-04-20T02:28:44.000Z,0
2023-04-20T02:31:29.000Z,0
2023-04-20T02:32:47.000Z,0
2023-04-20T02:34:13.000Z,0
2023-04-20T02:36:58.000Z,0
2023-04-20T02:39:43.000Z,0
2023-04-20T02:42:27.000Z,0
2023-04-20T02:45:12.000Z,0
2023-04-20T02:47:57.000Z,0
2023-04-20T02:50:41.000Z,0
2023-04-20T02:53:26.000Z,0
2023-04-20T02:56:10.000Z,0
2023-04-20T02:58:55.000Z,0
2023-04-20T03:00:13.000Z,0
2023-04-20T03:01:40.000Z,0
2023-04-20T03:04:24.000Z,0
2023-04-20T03:07:09.000Z,0
2023-04-20T03:09:54.000Z,0
2023-04-20T03:12:38.000Z,0
2023-04-20T03:15:23.000Z,0
2023-04-20T03:18:08.000Z,0
2023-04-20T03:20:52.000Z,0
2023-04-20T03:23:37.000Z,0
2023-04-20T03:26:22.000Z,0
2023-04-20T03:27:40.000Z,0
2023-04-20T03:29:06.000Z,0
2023-04-20T03:31:51.000Z,0
2023-04-20T03:34:35.000Z,0
2023-04-20T03:37:20.000Z,0
2023-04-20T03:40:05.000Z,0
2023-04-20T03:42:49.000Z,0
2023-04-20T03:45:34.000Z,0
2023-04-20T03:48:19.000Z,0
2023-04-20T03:51:03.000Z,0
2023-04-20T03:53:48.000Z,0
2023-04-20T03:55:06.000Z,0
2023-04-20T03:56:33.000Z,0
2023-04-20T03:59:17.000Z,0
2023-04-20T04:02:02.000Z,0
2023-04-20T04:04:46.000Z,0
2023-04-20T04:07:31.000Z,0
2023-04-20T04:10:16.000Z,0
2023-04-20T04:13:00.000Z,0
2023-04-20T04:15:45.000Z,0
2023-04-20T04:18:30.000Z,0
2023-04-20T04:21:14.000Z,0
2023-04-20T04:22:32.000Z,0
2023-04-20T04:23:59.000Z,0
2023-04-20T04:26:44.000Z,0
2023-04-20T04:29:28.000Z,5
2023-04-20T04:32:13.000Z,5
2023-04-20T04:35:14.000Z,5
2023-04-20T04:37:59.000Z,5
2023-04-20T04:40:43.000Z,5
2023-04-20T04:43:28.000Z,5
2023-04-20T04:46:12.000Z,5
2023-04-20T04:48:57.000Z,5
2023-04-20T04:50:15.000Z,5
2023-04-20T04:51:42.000Z,5
2023-04-20T04:54:26.000Z,5
2023-04-20T04:57:11.000Z,16
2023-04-20T04:59:56.000Z,16
2023-04-20T05:02:40.000Z,16
2023-04-20T05:05:25.000Z,22
2023-04-20T05:08:10.000Z,33
2023-04-20T05:10:54.000Z,39
2023-04-20T05:13:39.000Z,56
2023-04-20T05:16:24.000Z,61
2023-04-20T05:19:08.000Z,56
2023-04-20T05:21:53.000Z,61
2023-04-20T05:24:37.000Z,73
2023-04-20T05:27:22.000Z,118
2023-04-20T05:30:07.000Z,73
2023-04-20T05:32:51.000Z,45
2023-04-20T05:35:36.000Z,39
2023-04-20T05:38:21.000Z,39
2023-04-20T05:41:05.000Z,33
2023-04-20T05:43:50.000Z,50
2023-04-20T05:45:08.000Z,45
2023-04-20T05:46:35.000Z,45
2023-04-20T05:49:19.000Z,50
2023-04-20T05:52:04.000Z,73
2023-04-20T05:54:48.000Z,67
2023-04-20T05:57:33.000Z,56
2023-04-20T06:00:18.000Z,33
2023-04-20T06:03:02.000Z,39
2023-04-20T06:05:47.000Z,39
2023-04-20T06:08:32.000Z,39
2023-04-20T06:11:16.000Z,45
2023-04-20T06:12:34.000Z,50
2023-04-20T06:14:01.000Z,50
2023-04-20T06:16:46.000Z,56
2023-04-20T06:19:30.000Z,73
2023-04-20T06:22:15.000Z,61
2023-04-20T06:25:00.000Z,67
2023-04-20T06:27:44.000Z,50
2023-04-20T06:30:29.000Z,45
2023-04-20T06:33:13.000Z,45
2023-04-20T06:35:58.000Z,50
2023-04-20T06:38:43.000Z,56
2023-04-20T06:40:00.000Z,56
2023-04-20T06:41:27.000Z,45
2023-04-20T06:44:12.000Z,50
2023-04-20T06:46:57.000Z,56
2023-04-20T06:49:41.000Z,50
2023-04-20T06:52:26.000Z,45
2023-04-20T06:55:11.000Z,50
2023-04-20T06:57:55.000Z,56
2023-04-20T07:00:40.000Z,50
2023-04-20T07:03:24.000Z,50
2023-04-20T07:06:09.000Z,61
2023-04-20T07:07:27.000Z,78
2023-04-20T07:08:54.000Z,73
2023-04-20T07:11:38.000Z,84
2023-04-20T07:14:23.000Z,123
2023-04-20T07:17:08.000Z,112
2023-04-20T07:19:52.000Z,90
2023-04-20T07:22:37.000Z,84
2023-04-20T07:25:22.000Z,95
2023-04-20T07:28:06.000Z,112
2023-04-20T07:30:51.000Z,106
2023-04-20T07:33:36.000Z,135
2023-04-20T07:34:53.000Z,140
2023-04-20T07:36:20.000Z,151
2023-04-20T07:39:05.000Z,135
2023-04-20T07:41:49.000Z,101
2023-04-20T07:44:34.000Z,84
2023-04-20T07:47:19.000Z,78
2023-04-20T07:52:48.000Z,78
2023-04-20T07:55:33.000Z,95
2023-04-20T07:58:17.000Z,157
2023-04-20T08:01:02.000Z,202
2023-04-20T08:02:20.000Z,275
2023-04-20T08:03:47.000Z,264
2023-04-20T08:06:31.000Z,236
2023-04-20T08:09:16.000Z,151
2023-04-20T08:12:00.000Z,163
2023-04-20T08:14:45.000Z,202
2023-04-20T08:17:30.000Z,230
2023-04-20T08:20:14.000Z,241
2023-04-20T08:22:59.000Z,213
2023-04-20T08:25:44.000Z,151
2023-04-20T08:28:28.000Z,213
2023-04-20T08:29:46.000Z,196
2023-04-20T08:31:13.000Z,180
2023-04-20T08:33:58.000Z,163
2023-04-20T08:36:42.000Z,151
2023-04-20T08:39:27.000Z,129
2023-04-20T08:42:12.000Z,157
2023-04-20T08:44:56.000Z,365
2023-04-20T08:47:41.000Z,354
2023-04-20T08:50:25.000Z,354
2023-04-20T08:53:10.000Z,478
2023-04-20T08:55:55.000Z,483
2023-04-20T08:57:13.000Z,562
2023-04-20T08:58:39.000Z,630
2023-04-20T09:01:24.000Z,1001
2023-04-20T09:04:09.000Z,421
2023-04-20T09:06:53.000Z,506
2023-04-20T09:09:38.000Z,489
2023-04-20T09:12:23.000Z,320
2023-04-20T09:15:07.000Z,663
2023-04-20T09:17:52.000Z,573
2023-04-20T09:20:36.000Z,489
2023-04-20T09:23:21.000Z,196
2023-04-20T09:26:06.000Z,202
2023-04-20T09:28:50.000Z,225
2023-04-20T09:31:35.000Z,146
2023-04-20T09:34:20.000Z,123
2023-04-20T09:37:04.000Z,129
2023-04-20T09:39:49.000Z,146
2023-04-20T09:42:34.000Z,208
2023-04-20T09:45:18.000Z,230
2023-04-20T09:48:03.000Z,309
2023-04-20T09:50:48.000Z,517
2023-04-20T09:52:05.000Z,1372
2023-04-20T09:53:32.000Z,1153
2023-04-20T09:56:17.000Z,523
2023-04-20T09:59:01.000Z,978
2023-04-20T10:01:46.000Z,556
2023-04-20T10:04:31.000Z,427
2023-04-20T10:07:15.000Z,337
2023-04-20T10:10:00.000Z,196
2023-04-20T10:12:45.000Z,219
2023-04-20T10:15:29.000Z,196
2023-04-20T10:18:14.000Z,185
2023-04-20T10:19:32.000Z,146
2023-04-20T10:20:59.000Z,123
2023-04-20T10:26:28.000Z,129
2023-04-20T10:29:12.000Z,253
2023-04-20T10:31:57.000Z,185
2023-04-20T10:37:26.000Z,315
2023-04-20T10:40:11.000Z,489
2023-04-20T10:45:40.000Z,691
2023-04-20T10:46:58.000Z,798
2023-04-20T10:48:25.000Z,798
2023-04-20T10:51:10.000Z,1040
2023-04-20T10:56:39.000Z,292
2023-04-20T10:59:24.000Z,393
2023-04-20T11:02:08.000Z,410
2023-04-20T11:04:53.000Z,928
2023-04-20T11:07:37.000Z,360
2023-04-20T11:10:22.000Z,253
2023-04-20T11:13:07.000Z,202
2023-04-20T11:15:51.000Z,123
2023-04-20T11:18:36.000Z,174
2023-04-20T11:24:05.000Z,500
2023-04-20T11:26:50.000Z,568
2023-04-20T11:29:35.000Z,821
2023-04-20T11:32:19.000Z,663
2023-04-20T11:35:20.000Z,286
2023-04-20T11:38:05.000Z,196
2023-04-20T11:40:50.000Z,236
2023-04-20T11:43:34.000Z,326
2023-04-20T11:44:52.000Z,410
2023-04-20T11:46:19.000Z,433
2023-04-20T11:49:03.000Z,421
2023-04-20T11:54:33.000Z,703
2023-04-20T11:57:17.000Z,202
2023-04-20T12:00:02.000Z,112
2023-04-20T12:02:47.000Z,73
2023-04-20T12:05:31.000Z,67
2023-04-20T12:08:16.000Z,90
2023-04-20T12:11:01.000Z,151
2023-04-20T12:12:18.000Z,270
2023-04-20T12:13:45.000Z,376
2023-04-20T12:16:30.000Z,455
2023-04-20T12:19:14.000Z,540
2023-04-20T12:21:59.000Z,506
2023-04-20T12:24:44.000Z,393
2023-04-20T12:27:29.000Z,646
2023-04-20T12:30:29.000Z,472
2023-04-20T12:33:14.000Z,613
2023-04-20T12:35:59.000Z,348
2023-04-20T12:38:43.000Z,320
2023-04-20T12:40:01.000Z,371
2023-04-20T12:41:28.000Z,393
2023-04-20T12:46:57.000Z,253
2023-04-20T12:49:42.000Z,163
2023-04-20T12:52:27.000Z,213
2023-04-20T12:55:11.000Z,303
2023-04-20T12:58:12.000Z,360
2023-04-20T13:00:57.000Z,343
2023-04-20T13:03:41.000Z,562
2023-04-20T13:06:26.000Z,438
2023-04-20T13:07:44.000Z,483
2023-04-20T13:09:11.000Z,264
2023-04-20T13:14:40.000Z,416
2023-04-20T13:17:25.000Z,444
2023-04-20T13:23:10.000Z,540
2023-04-20T13:25:55.000Z,298
2023-04-20T13:28:40.000Z,230
2023-04-20T13:31:24.000Z,270
2023-04-20T13:34:09.000Z,309
2023-04-20T13:35:27.000Z,461
2023-04-20T13:36:54.000Z,472
2023-04-20T13:39:38.000Z,388
2023-04-20T13:42:23.000Z,360
2023-04-20T13:45:07.000Z,315
2023-04-20T13:47:52.000Z,365
2023-04-20T13:50:37.000Z,483
2023-04-20T13:53:22.000Z,416
2023-04-20T13:56:22.000Z,270
2023-04-20T13:59:07.000Z,298
2023-04-20T14:01:52.000Z,343
2023-04-20T14:03:09.000Z,337
2023-04-20T14:04:36.000Z,405
2023-04-20T14:07:21.000Z,365
2023-04-20T14:10:06.000Z,421
2023-04-20T14:12:50.000Z,202
2023-04-20T14:15:35.000Z,174
2023-04-20T14:18:20.000Z,303
2023-04-20T14:21:04.000Z,421
2023-04-20T14:23:49.000Z,416
2023-04-20T14:26:34.000Z,348
2023-04-20T14:29:34.000Z,382
2023-04-20T14:30:52.000Z,354
2023-04-20T14:32:19.000Z,292
2023-04-20T14:35:04.000Z,213
2023-04-20T14:37:48.000Z,354
2023-04-20T14:40:33.000Z,354
2023-04-20T14:43:18.000Z,343
2023-04-20T14:46:02.000Z,438
2023-04-20T14:48:47.000Z,253
2023-04-20T14:51:32.000Z,185
2023-04-20T14:54:16.000Z,202
2023-04-20T14:57:01.000Z,225
2023-04-20T14:58:19.000Z,236
2023-04-20T14:59:46.000Z,309
2023-04-20T15:02:30.000Z,309
2023-04-20T15:05:15.000Z,174
2023-04-20T15:07:59.000Z,185
2023-04-20T15:10:44.000Z,196
2023-04-20T15:13:29.000Z,213
2023-04-20T15:16:13.000Z,196
2023-04-20T15:18:58.000Z,202
2023-04-20T15:21:59.000Z,225
2023-04-20T15:24:44.000Z,174
2023-04-20T15:26:01.000Z,146
2023-04-20T15:27:28.000Z,151
2023-04-20T15:30:13.000Z,157
2023-04-20T15:32:58.000Z,135
2023-04-20T15:35:42.000Z,106
2023-04-20T15:38:27.000Z,90
2023-04-20T15:41:12.000Z,90
2023-04-20T15:43:56.000Z,78
2023-04-20T15:46:41.000Z,78
2023-04-20T15:49:25.000Z,95
2023-04-20T15:52:10.000Z,90
2023-04-20T15:53:28.000Z,84
2023-04-20T15:54:55.000Z,101
2023-04-20T15:57:39.000Z,135
2023-04-20T16:00:24.000Z,157
2023-04-20T16:03:09.000Z,151
2023-04-20T16:05:53.000Z,180
2023-04-20T16:08:38.000Z,185
2023-04-20T16:11:23.000Z,140
2023-04-20T16:14:07.000Z,106
2023-04-20T16:16:52.000Z,90
2023-04-20T16:19:36.000Z,78
2023-04-20T16:20:54.000Z,84
2023-04-20T16:22:21.000Z,84
2023-04-20T16:25:06.000Z,84
2023-04-20T16:27:50.000Z,73
2023-04-20T16:30:35.000Z,61
2023-04-20T16:33:20.000Z,67
2023-04-20T16:36:04.000Z,67
2023-04-20T16:38:49.000Z,56
2023-04-20T16:41:34.000Z,50
2023-04-20T16:44:18.000Z,45
2023-04-20T16:47:03.000Z,39
2023-04-20T16:48:21.000Z,45
2023-04-20T16:49:48.000Z,39
2023-04-20T16:52:32.000Z,39
2023-04-20T16:55:17.000Z,33
2023-04-20T16:58:01.000Z,28
2023-04-20T17:00:46.000Z,28
2023-04-20T17:03:31.000Z,22
2023-04-20T17:06:15.000Z,16
2023-04-20T17:09:00.000Z,16
2023-04-20T17:11:45.000Z,22
2023-04-20T17:14:29.000Z,22
2023-04-20T17:15:47.000Z,22
2023-04-20T17:17:14.000Z,16
2023-04-20T17:19:59.000Z,16
2023-04-20T17:22:43.000Z,16
2023-04-20T17:25:28.000Z,11
2023-04-20T17:28:13.000Z,11
2023-04-20T17:30:57.000Z,11
2023-04-20T17:33:42.000Z,11
2023-04-20T17:36:26.000Z,16
2023-04-20T17:39:11.000Z,16
2023-04-20T17:41:56.000Z,11
2023-04-20T17:43:14.000Z,11
2023-04-20T17:44:40.000Z,5
2023-04-20T17:47:25.000Z,5
2023-04-20T17:50:10.000Z,5
2023-04-20T17:52:54.000Z,5
2023-04-20T17:55:39.000Z,5
2023-04-20T17:58:24.000Z,5
2023-04-20T18:01:08.000Z,5
2023-04-20T18:03:53.000Z,5
2023-04-20T18:06:37.000Z,5
2023-04-20T18:09:22.000Z,5
2023-04-20T18:10:40.000Z,5
2023-04-20T18:12:07.000Z,5
2023-04-20T18:14:51.000Z,0
2023-04-20T18:17:36.000Z,0
2023-04-20T18:20:21.000Z,0
2023-04-20T18:23:05.000Z,0
2023-04-20T18:25:50.000Z,0
2023-04-20T18:28:35.000Z,0
2023-04-20T18:31:19.000Z,0
2023-04-20T18:34:04.000Z,0
2023-04-20T18:36:49.000Z,0
2023-04-20T18:38:06.000Z,0
2023-04-20T18:39:32.000Z,0
2023-04-20T18:41:03.000Z,0
2023-04-20T18:42:33.000Z,0
2023-04-20T18:44:04.000Z,0
2023-04-20T18:45:34.000Z,0
2023-04-20T18:47:05.000Z,0
2023-04-20T18:48:35.000Z,0
2023-04-20T18:50:06.000Z,0
2023-04-20T18:51:37.000Z,0
2023-04-20T18:53:07.000Z,0
2023-04-20T18:54:38.000Z,0
2023-04-20T18:56:08.000Z,0
2023-04-20T18:57:39.000Z,0
2023-04-20T18:59:09.000Z,0
2023-04-20T19:00:40.000Z,0
2023-04-20T19:02:10.000Z,0
2023-04-20T19:03:41.000Z,0
2023-04-20T19:05:11.000Z,0
2023-04-20T19:06:28.000Z,0
2023-04-20T19:07:45.000Z,0
2023-04-20T19:09:16.000Z,0
2023-04-20T19:10:46.000Z,0
2023-04-20T19:12:17.000Z,0
2023-04-20T19:13:47.000Z,0
2023-04-20T19:15:18.000Z,0
2023-04-20T19:16:48.000Z,0
2023-04-20T19:18:19.000Z,0
2023-04-20T19:19:49.000Z,0
2023-04-20T19:21:20.000Z,0
2023-04-20T19:22:37.000Z,0
2023-04-20T19:25:24.000Z,0
2023-04-20T19:26:55.000Z,0
2023-04-20T19:28:25.000Z,0
2023-04-20T19:29:56.000Z,0
2023-04-20T19:31:26.000Z,0
2023-04-20T19:32:57.000Z,0
2023-04-20T19:34:27.000Z,0
2023-04-20T19:35:58.000Z,0
2023-04-20T19:37:28.000Z,0
2023-04-20T19:38:45.000Z,0
2023-04-20T19:40:02.000Z,0
2023-04-20T19:41:33.000Z,0
2023-04-20T19:43:03.000Z,0
2023-04-20T19:44:34.000Z,0
2023-04-20T19:46:04.000Z,0
2023-04-20T19:47:35.000Z,0
2023-04-20T19:49:05.000Z,0
2023-04-20T19:50:36.000Z,0
2023-04-20T19:52:06.000Z,0
2023-04-20T19:53:37.000Z,0
2023-04-20T19:54:54.000Z,0
2023-04-20T19:56:11.000Z,0
2023-04-20T19:57:41.000Z,0
2023-04-20T19:59:12.000Z,0
2023-04-20T20:00:42.000Z,0
2023-04-20T20:02:13.000Z,0
2023-04-20T20:03:43.000Z,0
2023-04-20T20:05:14.000Z,0
2023-04-20T20:06:44.000Z,0
2023-04-20T20:08:15.000Z,0
2023-04-20T20:09:45.000Z,0
2023-04-20T20:11:02.000Z,0
2023-04-20T20:12:19.000Z,0
2023-04-20T20:13:50.000Z,0
2023-04-20T20:15:28.000Z,0
2023-04-20T20:16:59.000Z,0
2023-04-20T20:18:29.000Z,0
2023-04-20T20:20:00.000Z,0
2023-04-20T20:21:31.000Z,0
2023-04-20T20:23:01.000Z,0
2023-04-20T20:24:32.000Z,0
2023-04-20T20:26:02.000Z,0
2023-04-20T20:27:19.000Z,0
2023-04-20T20:28:36.000Z,0
2023-04-20T20:30:06.000Z,0
2023-04-20T20:31:37.000Z,0
2023-04-20T20:33:08.000Z,0
2023-04-20T20:34:38.000Z,0
2023-04-20T20:36:09.000Z,0
2023-04-20T20:37:39.000Z,0
2023-04-20T20:39:10.000Z,0
2023-04-20T20:40:40.000Z,0
2023-04-20T20:42:11.000Z,0
2023-04-20T20:43:28.000Z,0
2023-04-20T20:44:45.000Z,0
2023-04-20T20:46:15.000Z,0
2023-04-20T20:47:46.000Z,0
2023-04-20T20:49:16.000Z,0
2023-04-20T20:50:47.000Z,0
2023-04-20T20:52:17.000Z,0
2023-04-20T20:53:48.000Z,0
2023-04-20T20:55:18.000Z,0
2023-04-20T20:56:49.000Z,0
2023-04-20T20:58:19.000Z,0
2023-04-20T20:59:36.000Z,0
2023-04-20T21:00:53.000Z,0
2023-04-20T21:02:24.000Z,0
2023-04-20T21:03:54.000Z,0
2023-04-20T21:05:25.000Z,0
2023-04-20T21:06:55.000Z,0
2023-04-20T21:08:26.000Z,0
2023-04-20T21:09:56.000Z,0
2023-04-20T21:11:27.000Z,0
2023-04-20T21:12:57.000Z,0
2023-04-20T21:14:28.000Z,0
2023-04-20T21:15:45.000Z,0
2023-04-20T21:17:02.000Z,0
2023-04-20T21:18:32.000Z,0
2023-04-20T21:20:03.000Z,0
2023-04-20T21:21:33.000Z,0
2023-04-20T21:23:04.000Z,0
2023-04-20T21:24:34.000Z,0
2023-04-20T21:26:05.000Z,0
2023-04-20T21:27:35.000Z,0
2023-04-20T21:29:06.000Z,0
2023-04-20T21:30:36.000Z,0
2023-04-20T21:31:53.000Z,0
2023-04-20T21:33:10.000Z,0
2023-04-20T21:34:41.000Z,0
2023-04-20T21:36:11.000Z,0
2023-04-20T21:37:42.000Z,0
2023-04-20T21:39:12.000Z,0
2023-04-20T21:40:43.000Z,0
2023-04-20T21:42:13.000Z,0
2023-04-20T21:43:44.000Z,0
2023-04-20T21:45:14.000Z,0
2023-04-20T21:46:45.000Z,0
2023-04-20T21:48:02.000Z,0
2023-04-20T21:49:19.000Z,0
2023-04-20T21:50:49.000Z,0
2023-04-20T21:52:20.000Z,0
2023-04-20T21:53:50.000Z,0
2023-04-20T21:55:21.000Z,0
2023-04-20T21:56:51.000Z,0
2023-04-20T21:58:22.000Z,0
2023-04-20T21:59:52.000Z,0
2023-04-20T22:01:23.000Z,0
2023-04-20T22:02:53.000Z,0
2023-04-20T22:04:10.000Z,0
2023-04-20T22:05:27.000Z,0
2023-04-20T22:06:58.000Z,0
2023-04-20T22:08:28.000Z,0
2023-04-20T22:09:59.000Z,0
2023-04-20T22:11:29.000Z,0
2023-04-20T22:13:00.000Z,0
2023-04-20T22:14:30.000Z,0
2023-04-20T22:16:01.000Z,0
2023-04-20T22:17:31.000Z,0
2023-04-20T22:19:02.000Z,0
2023-04-20T22:20:19.000Z,0
2023-04-20T22:21:36.000Z,0
2023-04-20T22:23:06.000Z,0
2023-04-20T22:24:37.000Z,0
2023-04-20T22:26:07.000Z,0
2023-04-20T22:27:38.000Z,0
2023-04-20T22:29:08.000Z,0
2023-04-20T22:30:39.000Z,0
2023-04-20T22:32:09.000Z,0
2023-04-20T22:33:40.000Z,0
2023-04-20T22:35:10.000Z,0
2023-04-20T22:36:27.000Z,0
2023-04-20T22:37:44.000Z,0
2023-04-20T22:39:15.000Z,0
2023-04-20T22:40:45.000Z,0
2023-04-20T22:42:16.000Z,0
2023-04-20T22:43:46.000Z,0
2023-04-20T22:45:17.000Z,0
2023-04-20T22:46:47.000Z,0
2023-04-20T22:48:18.000Z,0
2023-04-20T22:49:48.000Z,0
2023-04-20T22:51:19.000Z,0
2023-04-20T22:52:36.000Z,0
2023-04-20T22:53:53.000Z,0
2023-04-20T22:55:23.000Z,0
2023-04-20T22:56:54.000Z,0
2023-04-20T22:58:24.000Z,0
2023-04-20T23:01:25.000Z,0
2023-04-20T23:02:56.000Z,0
2023-04-20T23:04:27.000Z,0
2023-04-20T23:05:57.000Z,0
2023-04-20T23:07:28.000Z,0
2023-04-20T23:08:44.000Z,0
2023-04-20T23:10:01.000Z,0
2023-04-20T23:11:32.000Z,0
2023-04-20T23:13:02.000Z,0
2023-04-20T23:14:33.000Z,0
2023-04-20T23:16:03.000Z,0
2023-04-20T23:17:34.000Z,0
2023-04-20T23:19:04.000Z,0
2023-04-20T23:20:35.000Z,0
2023-04-20T23:22:05.000Z,0
2023-04-20T23:23:36.000Z,0
2023-04-20T23:24:53.000Z,0
2023-04-20T23:26:10.000Z,0
2023-04-20T23:27:40.000Z,0
2023-04-20T23:29:11.000Z,0
2023-04-20T23:30:41.000Z,0
2023-04-20T23:32:12.000Z,0
2023-04-20T23:33:42.000Z,0
2023-04-20T23:35:13.000Z,0
2023-04-20T23:36:43.000Z,0
2023-04-20T23:38:14.000Z,0
2023-04-20T23:39:44.000Z,0
2023-04-20T23:41:01.000Z,0
2023-04-20T23:42:18.000Z,0
2023-04-20T23:43:49.000Z,0
2023-04-20T23:45:19.000Z,0
2023-04-20T23:46:50.000Z,0
2023-04-20T23:48:20.000Z,0
2023-04-20T23:49:51.000Z,0
2023-04-20T23:51:21.000Z,0
2023-04-20T23:52:52.000Z,0
2023-04-20T23:54:22.000Z,0
2023-04-20T23:55:53.000Z,0
2023-04-20T23:57:09.000Z,0
2023-04-20T23:58:26.000Z,0
2023-04-20T23:59:57.000Z,0
